createdAt,value
2023-03-16T00:01:29.876Z,72.80
2023-03-16T00:03:56.347Z,73.19
2023-03-16T00:06:25.238Z,73.89
2023-03-16T00:08:52.643Z,74.53
2023-03-16T00:11:22.101Z,74.41
2023-03-16T00:13:48.470Z,74.41
2023-03-16T00:16:17.981Z,73.99
2023-03-16T00:18:44.437Z,74.19
2023-03-16T00:21:20.839Z,74.76
2023-03-16T00:23:47.223Z,74.69
2023-03-16T00:26:13.691Z,74.98
2023-03-16T00:28:45.796Z,74.87
2023-03-16T00:31:12.288Z,75.55
2023-03-16T00:33:39.193Z,75.75
2023-03-16T00:36:13.748Z,76.15
2023-03-16T00:38:55.770Z,75.86
2023-03-16T00:41:22.922Z,75.84
2023-03-16T00:43:57.814Z,76.34
2023-03-16T00:46:26.563Z,76.39
2023-03-16T00:49:03.204Z,77.07
2023-03-16T00:51:36.408Z,77.39
2023-03-16T00:54:05.947Z,78.04
2023-03-16T00:56:32.340Z,78.21
2023-03-16T00:58:59.055Z,78.75
2023-03-16T01:01:32.695Z,78.93
2023-03-16T01:04:02.375Z,78.81
2023-03-16T01:06:31.155Z,78.29
2023-03-16T01:08:57.989Z,78.83
2023-03-16T01:11:25.501Z,79.32
2023-03-16T01:13:56.018Z,79.46
2023-03-16T01:16:23.312Z,79.41
2023-03-16T01:18:50.893Z,79.25
2023-03-16T01:21:21.278Z,79.83
2023-03-16T01:23:48.066Z,80.13
2023-03-16T01:26:18.598Z,80.06
2023-03-16T01:28:44.979Z,80.85
2023-03-16T01:31:16.556Z,80.95
2023-03-16T01:33:51.209Z,80.49
2023-03-16T01:36:20.233Z,81.17
2023-03-16T01:38:51.128Z,81.23
2023-03-16T01:41:17.500Z,80.57
2023-03-16T01:43:53.568Z,81.48
2023-03-16T01:46:25.684Z,81.86
2023-03-16T01:49:21.419Z,81.78
2023-03-16T01:52:12.558Z,81.87
2023-03-16T01:55:32.054Z,81.90
2023-03-16T01:58:20.713Z,82.52
2023-03-16T02:00:47.101Z,82.94
2023-03-16T02:03:55.494Z,82.92
2023-03-16T02:06:27.014Z,83.47
2023-03-16T02:08:55.377Z,83.22
2023-03-16T02:11:27.951Z,83.74
2023-03-16T02:14:02.134Z,83.80
2023-03-16T02:16:33.123Z,83.99
2023-03-16T02:19:02.288Z,83.98
2023-03-16T02:21:48.933Z,83.93
2023-03-16T02:24:18.067Z,84.09
2023-03-16T02:27:04.487Z,84.02
2023-03-16T02:30:14.291Z,84.02
2023-03-16T02:32:46.010Z,84.24
2023-03-16T02:35:21.425Z,84.31
2023-03-16T02:37:47.971Z,84.26
2023-03-16T02:40:30.899Z,84.09
2023-03-16T02:43:20.262Z,83.94
2023-03-16T02:45:53.515Z,84.44
2023-03-16T02:54:06.838Z,85.96
2023-03-16T02:56:36.218Z,86.39
2023-03-16T02:59:02.827Z,86.17
2023-03-16T03:01:31.799Z,85.97
2023-03-16T03:04:02.061Z,87.06
2023-03-16T03:06:28.981Z,87.96
2023-03-16T03:08:56.312Z,88.16
2023-03-16T03:11:25.457Z,88.23
2023-03-16T03:13:52.102Z,88.79
2023-03-16T03:16:21.271Z,88.89
2023-03-16T03:18:48.630Z,88.51
2023-03-16T03:21:15.333Z,89.30
2023-03-16T03:23:50.611Z,89.19
2023-03-16T03:26:17.284Z,89.15
2023-03-16T03:28:46.889Z,89.80
2023-03-16T03:31:23.446Z,89.74
2023-03-16T03:33:56.331Z,89.97
2023-03-16T03:36:22.658Z,90.25
2023-03-16T03:38:54.713Z,90.35
2023-03-16T03:41:22.475Z,91.19
2023-03-16T03:43:49.400Z,90.28
2023-03-16T03:46:18.941Z,91.79
2023-03-16T03:48:45.426Z,91.24
2023-03-16T03:51:11.819Z,92.16
2023-03-16T03:53:48.742Z,91.84
2023-03-16T03:56:15.142Z,92.81
2023-03-16T03:58:44.986Z,94.21
2023-03-16T04:01:14.488Z,94.81
2023-03-16T04:03:47.244Z,95.20
2023-03-16T04:06:16.625Z,96.07
2023-03-16T04:08:43.023Z,96.88
2023-03-16T04:11:09.971Z,97.07
2023-03-16T04:13:39.321Z,96.87
2023-03-16T04:16:05.950Z,97.58
2023-03-16T04:18:46.037Z,98.09
2023-03-16T04:21:22.611Z,98.30
2023-03-16T04:23:49.868Z,97.59
2023-03-16T04:26:41.345Z,98.78
2023-03-16T04:29:07.844Z,98.04
2023-03-16T04:31:34.229Z,98.44
2023-03-16T04:34:04.677Z,98.79
2023-03-16T04:36:34.191Z,99.29
2023-03-16T04:39:00.657Z,99.59
2023-03-16T04:41:30.175Z,99.90
2023-03-16T04:43:58.130Z,99.56
2023-03-16T04:46:39.343Z,100.00
2023-03-16T04:49:09.154Z,100.00
2023-03-16T04:51:41.225Z,99.85
2023-03-16T04:54:08.127Z,100.00
2023-03-16T04:56:44.700Z,100.00
2023-03-16T04:59:11.267Z,100.00
2023-03-16T05:01:40.888Z,99.47
2023-03-16T05:04:15.030Z,99.67
2023-03-16T05:06:47.935Z,98.93
2023-03-16T05:09:14.396Z,99.15
2023-03-16T05:11:46.847Z,99.07
2023-03-16T05:14:13.282Z,97.62
2023-03-16T05:16:39.655Z,98.13
2023-03-16T05:19:08.838Z,97.57
2023-03-16T05:21:38.696Z,97.20
2023-03-16T05:24:06.005Z,97.76
2023-03-16T05:26:41.489Z,98.21
2023-03-16T05:29:07.881Z,98.01
2023-03-16T05:31:42.748Z,97.58
2023-03-16T05:34:09.114Z,98.36
2023-03-16T05:36:40.894Z,98.77
2023-03-16T05:39:10.257Z,98.58
2023-03-16T05:41:39.393Z,98.48
2023-03-16T05:44:06.213Z,98.36
2023-03-16T05:46:33.320Z,98.70
2023-03-16T05:49:00.210Z,99.11
2023-03-16T05:51:35.711Z,99.45
2023-03-16T05:54:02.165Z,99.45
2023-03-16T05:56:31.567Z,99.58
2023-03-16T05:59:01.191Z,99.98
2023-03-16T06:01:27.804Z,100.00
2023-03-16T06:03:57.209Z,100.00
2023-03-16T06:06:23.699Z,100.00
2023-03-16T06:08:50.109Z,100.00
2023-03-16T06:16:43.945Z,100.00
2023-03-16T06:19:13.492Z,100.00
2023-03-16T06:21:46.365Z,100.00
2023-03-16T06:24:15.918Z,100.00
2023-03-16T06:26:49.734Z,100.00
2023-03-16T06:29:18.943Z,100.00
2023-03-16T06:34:25.735Z,100.00
2023-03-16T06:36:53.720Z,100.00
2023-03-16T06:39:22.969Z,100.00
2023-03-16T06:41:49.407Z,100.00
2023-03-16T06:44:18.568Z,100.00
2023-03-16T06:46:47.984Z,100.00
2023-03-16T06:49:14.380Z,100.00
2023-03-16T06:51:44.358Z,100.00
2023-03-16T06:54:13.606Z,100.00
2023-03-16T06:56:48.465Z,100.00
2023-03-16T06:59:14.969Z,100.00
2023-03-16T07:01:42.271Z,100.00
2023-03-16T07:04:17.929Z,100.00
2023-03-16T07:06:44.300Z,100.00
2023-03-16T07:09:12.402Z,99.55
2023-03-16T07:11:41.905Z,99.49
2023-03-16T07:14:08.298Z,99.64
2023-03-16T07:16:48.357Z,99.80
2023-03-16T07:19:17.592Z,99.26
2023-03-16T07:21:46.296Z,98.52
2023-03-16T07:24:12.966Z,98.38
2023-03-16T07:29:25.927Z,97.91
2023-03-16T07:31:55.597Z,98.65
2023-03-16T07:34:25.091Z,98.66
2023-03-16T07:36:56.795Z,97.23
2023-03-16T07:39:26.241Z,98.28
2023-03-16T07:41:52.822Z,98.53
2023-03-16T07:44:22.288Z,98.92
2023-03-16T07:46:55.979Z,98.07
2023-03-16T07:49:25.542Z,97.72
2023-03-16T07:51:55.202Z,98.80
2023-03-16T07:54:21.573Z,98.07
2023-03-16T07:56:49.792Z,98.48
2023-03-16T07:59:21.201Z,97.96
2023-03-16T08:01:50.690Z,98.34
2023-03-16T08:04:17.076Z,99.31
2023-03-16T08:09:26.701Z,98.85
2023-03-16T08:11:56.846Z,98.83
2023-03-16T08:14:23.743Z,98.14
2023-03-16T08:16:54.891Z,98.20
2023-03-16T08:19:21.306Z,96.55
2023-03-16T08:22:00.711Z,95.86
2023-03-16T08:24:29.459Z,94.69
2023-03-16T08:27:05.704Z,93.77
2023-03-16T08:29:36.948Z,93.80
2023-03-16T08:32:03.575Z,94.12
2023-03-16T08:34:33.634Z,93.27
2023-03-16T08:37:02.472Z,93.77
2023-03-16T08:39:32.470Z,92.21
2023-03-16T08:41:58.870Z,92.38
2023-03-16T08:44:36.269Z,92.06
2023-03-16T08:47:07.762Z,91.49
2023-03-16T08:49:37.752Z,91.54
2023-03-16T08:52:05.248Z,92.42
2023-03-16T08:54:34.761Z,90.61
2023-03-16T08:57:04.475Z,90.06
2023-03-16T08:59:32.352Z,90.42
2023-03-16T09:02:00.552Z,90.57
2023-03-16T09:04:28.406Z,89.94
2023-03-16T09:07:11.662Z,88.75
2023-03-16T09:09:43.222Z,87.82
2023-03-16T09:12:12.676Z,88.43
2023-03-16T09:14:41.954Z,87.67
2023-03-16T09:17:13.682Z,88.41
2023-03-16T09:19:51.080Z,86.85
2023-03-16T09:22:21.551Z,85.76
2023-03-16T09:24:57.068Z,86.32
2023-03-16T09:27:23.608Z,87.89
2023-03-16T09:29:53.400Z,87.07
2023-03-16T09:32:23.147Z,87.35
2023-03-16T09:34:49.583Z,87.16
2023-03-16T09:37:20.990Z,87.17
2023-03-16T09:39:51.833Z,87.04
2023-03-16T09:42:37.730Z,86.59
2023-03-16T09:45:28.982Z,86.98
2023-03-16T09:48:03.022Z,86.97
2023-03-16T09:50:47.169Z,85.15
2023-03-16T09:53:38.422Z,85.91
2023-03-16T09:56:15.946Z,85.25
2023-03-16T09:58:42.660Z,84.33
2023-03-16T10:01:18.832Z,84.19
2023-03-16T10:04:06.102Z,83.32
2023-03-16T10:06:42.773Z,82.67
2023-03-16T10:09:47.426Z,81.04
2023-03-16T10:12:18.070Z,80.00
2023-03-16T10:15:12.399Z,79.33
2023-03-16T10:20:41.970Z,74.57
2023-03-16T10:23:23.449Z,76.24
2023-03-16T10:25:54.956Z,73.55
2023-03-16T10:28:35.122Z,73.60
2023-03-16T10:31:02.139Z,72.27
2023-03-16T10:33:37.608Z,70.83
2023-03-16T10:36:19.310Z,71.86
2023-03-16T10:39:01.082Z,69.66
2023-03-16T10:41:43.587Z,70.47
2023-03-16T10:44:27.435Z,70.09
2023-03-16T10:47:08.461Z,69.45
2023-03-16T10:49:49.192Z,68.72
2023-03-16T10:52:41.883Z,69.00
2023-03-16T10:55:23.721Z,68.08
2023-03-16T10:57:55.125Z,67.77
2023-03-16T11:00:46.914Z,69.30
2023-03-16T11:03:37.958Z,66.71
2023-03-16T11:06:35.154Z,66.99
2023-03-16T11:09:08.970Z,67.12
2023-03-16T11:11:40.491Z,65.95
2023-03-16T11:14:15.251Z,65.71
2023-03-16T11:17:16.736Z,65.33
2023-03-16T11:20:19.654Z,65.01
2023-03-16T11:22:48.384Z,64.82
2023-03-16T11:25:28.467Z,65.54
2023-03-16T11:28:36.068Z,64.43
2023-03-16T11:31:32.647Z,64.88
2023-03-16T11:34:07.006Z,65.04
2023-03-16T11:36:57.480Z,63.89
2023-03-16T11:42:37.165Z,63.63
2023-03-16T11:45:31.614Z,63.43
2023-03-16T11:48:39.043Z,63.72
2023-03-16T11:51:21.509Z,62.41
2023-03-16T11:54:03.147Z,61.78
2023-03-16T11:57:08.458Z,62.98
2023-03-16T12:00:02.013Z,62.79
2023-03-16T12:02:50.444Z,61.94
2023-03-16T12:05:45.071Z,62.04
2023-03-16T12:08:35.043Z,61.03
2023-03-16T12:11:13.796Z,60.24
2023-03-16T12:14:10.687Z,60.12
2023-03-16T12:16:51.743Z,59.80
2023-03-16T12:19:59.080Z,59.45
2023-03-16T12:22:44.679Z,59.19
2023-03-16T12:25:42.733Z,57.96
2023-03-16T12:28:24.353Z,58.38
2023-03-16T12:31:20.030Z,57.70
2023-03-16T12:33:55.686Z,56.91
2023-03-16T12:37:12.914Z,56.42
2023-03-16T12:40:02.554Z,55.76
2023-03-16T12:43:03.800Z,55.88
2023-03-16T12:45:52.135Z,54.75
2023-03-16T12:48:30.656Z,55.37
2023-03-16T12:51:22.765Z,55.02
2023-03-16T12:53:59.176Z,54.83
2023-03-16T12:56:48.882Z,54.29
2023-03-16T12:59:22.614Z,54.71
2023-03-16T13:01:52.276Z,53.46
2023-03-16T13:04:23.574Z,53.09
2023-03-16T13:07:01.332Z,53.81
2023-03-16T13:09:37.807Z,54.01
2023-03-16T13:12:10.552Z,54.05
2023-03-16T13:14:48.402Z,52.92
2023-03-16T13:17:17.633Z,52.98
2023-03-16T13:20:24.251Z,53.56
2023-03-16T13:23:18.902Z,52.97
2023-03-16T13:26:00.240Z,51.58
2023-03-16T13:28:39.185Z,51.73
2023-03-16T13:31:20.186Z,51.22
2023-03-16T13:33:51.221Z,51.11
2023-03-16T13:36:25.544Z,50.47
2023-03-16T13:39:24.408Z,50.84
2023-03-16T13:42:26.449Z,51.21
2023-03-16T13:45:16.190Z,49.96
2023-03-16T13:47:47.518Z,50.15
2023-03-16T13:50:16.003Z,50.19
2023-03-16T13:52:44.147Z,50.47
2023-03-16T13:55:24.872Z,49.95
2023-03-16T13:57:55.704Z,49.50
2023-03-16T14:00:29.622Z,49.51
2023-03-16T14:03:05.147Z,49.12
2023-03-16T14:05:37.630Z,48.98
2023-03-16T14:08:04.996Z,48.98
2023-03-16T14:10:36.939Z,49.03
2023-03-16T14:13:09.655Z,49.22
2023-03-16T14:15:39.045Z,49.19
2023-03-16T14:18:27.405Z,49.50
2023-03-16T14:23:43.891Z,49.06
2023-03-16T14:26:16.492Z,48.21
2023-03-16T14:29:16.983Z,48.21
2023-03-16T14:31:47.667Z,48.53
2023-03-16T14:34:29.688Z,48.34
2023-03-16T14:37:20.113Z,49.25
2023-03-16T14:40:01.645Z,48.54
2023-03-16T14:42:35.319Z,48.28
2023-03-16T14:45:15.069Z,48.00
2023-03-16T14:47:47.447Z,49.11
2023-03-16T14:50:19.841Z,49.14
2023-03-16T14:52:47.323Z,48.26
2023-03-16T14:55:28.449Z,48.42
2023-03-16T14:57:55.117Z,48.63
2023-03-16T15:00:23.695Z,49.28
2023-03-16T15:03:02.541Z,48.03
2023-03-16T15:06:00.653Z,49.57
2023-03-16T15:08:53.582Z,48.49
2023-03-16T15:11:21.704Z,48.67
2023-03-16T15:13:55.993Z,48.97
2023-03-16T15:16:23.001Z,49.70
2023-03-16T15:21:53.022Z,50.41
2023-03-16T15:24:26.613Z,50.54
2023-03-16T15:29:41.510Z,50.33
2023-03-16T15:32:13.302Z,50.18
2023-03-16T15:34:49.701Z,49.65
2023-03-16T15:37:18.589Z,49.32
2023-03-16T15:39:46.834Z,49.80
2023-03-16T15:42:18.474Z,49.01
2023-03-16T15:44:48.690Z,48.39
2023-03-16T15:47:18.059Z,48.37
2023-03-16T15:49:48.101Z,49.21
2023-03-16T15:52:35.017Z,49.41
2023-03-16T15:55:10.828Z,49.21
2023-03-16T15:57:37.185Z,49.09
2023-03-16T16:00:04.367Z,48.87
2023-03-16T16:02:33.311Z,48.69
2023-03-16T16:05:00.130Z,49.36
2023-03-16T16:07:29.806Z,49.60
2023-03-16T16:10:09.384Z,49.24
2023-03-16T16:12:35.911Z,49.13
2023-03-16T16:15:06.929Z,50.29
2023-03-16T16:17:50.674Z,49.79
2023-03-16T16:20:35.958Z,50.12
2023-03-16T16:23:10.756Z,51.02
2023-03-16T16:25:41.863Z,50.86
2023-03-16T16:28:34.787Z,51.02
2023-03-16T16:31:01.912Z,50.75
2023-03-16T16:33:36.016Z,51.08
2023-03-16T16:36:13.716Z,51.78
2023-03-16T16:38:40.351Z,51.15
2023-03-16T16:41:09.061Z,51.31
2023-03-16T16:43:42.639Z,52.06
2023-03-16T16:49:13.353Z,52.04
2023-03-16T16:54:29.581Z,53.10
2023-03-16T16:56:58.554Z,53.60
2023-03-16T16:59:33.128Z,54.10
2023-03-16T17:02:22.544Z,54.16
2023-03-16T17:04:54.514Z,54.16
2023-03-16T17:07:24.734Z,54.79
2023-03-16T17:09:58.749Z,55.24
2023-03-16T17:12:25.525Z,56.42
2023-03-16T17:14:52.002Z,56.22
2023-03-16T17:17:21.586Z,56.77
2023-03-16T17:19:51.596Z,57.49
2023-03-16T17:22:30.858Z,57.24
2023-03-16T17:24:57.414Z,57.48
2023-03-16T17:27:48.561Z,58.07
2023-03-16T17:30:27.653Z,58.12
2023-03-16T17:33:02.773Z,58.80
2023-03-16T17:35:32.917Z,58.58
2023-03-16T17:37:59.489Z,58.45
2023-03-16T17:40:25.946Z,58.57
2023-03-16T17:42:57.943Z,58.05
2023-03-16T17:45:27.693Z,58.29
2023-03-16T17:47:58.318Z,58.54
2023-03-16T17:50:31.385Z,59.27
2023-03-16T17:53:11.623Z,58.47
2023-03-16T17:58:26.878Z,58.64
2023-03-16T18:00:57.289Z,58.61
2023-03-16T18:03:30.760Z,59.23
2023-03-16T18:05:59.380Z,59.33
2023-03-16T18:08:37.733Z,59.63
2023-03-16T18:11:12.606Z,59.86
2023-03-16T18:13:42.386Z,60.46
2023-03-16T18:16:20.402Z,60.43
2023-03-16T18:18:46.943Z,61.26
2023-03-16T18:21:25.992Z,61.01
2023-03-16T18:23:53.914Z,61.58
2023-03-16T18:26:29.625Z,61.79
2023-03-16T18:28:59.772Z,62.11
2023-03-16T18:31:31.146Z,62.38
2023-03-16T18:34:07.139Z,62.48
2023-03-16T18:36:39.884Z,63.06
2023-03-16T18:39:16.076Z,63.78
2023-03-16T18:41:44.595Z,64.51
2023-03-16T18:44:19.989Z,64.49
2023-03-16T18:46:49.896Z,64.99
2023-03-16T18:49:29.632Z,65.61
2023-03-16T18:52:01.691Z,65.74
2023-03-16T18:54:33.727Z,66.52
2023-03-16T18:57:04.370Z,67.03
2023-03-16T18:59:32.167Z,67.37
2023-03-16T19:02:02.615Z,67.65
2023-03-16T19:04:32.646Z,67.92
2023-03-16T19:07:10.970Z,68.17
2023-03-16T19:09:44.987Z,68.77
2023-03-16T19:12:18.746Z,69.28
2023-03-16T19:14:48.253Z,70.34
2023-03-16T19:17:17.492Z,70.36
2023-03-16T19:19:51.259Z,70.65
2023-03-16T19:22:21.830Z,71.44
2023-03-16T19:25:03.372Z,71.22
2023-03-16T19:27:36.814Z,71.24
2023-03-16T19:30:04.271Z,71.28
2023-03-16T19:32:38.501Z,71.87
2023-03-16T19:35:20.830Z,71.31
2023-03-16T19:37:47.546Z,71.64
2023-03-16T19:43:09.089Z,71.62
2023-03-16T19:45:35.487Z,71.82
2023-03-16T19:48:04.667Z,71.86
2023-03-16T19:50:33.380Z,71.89
2023-03-16T19:53:00.108Z,71.82
2023-03-16T19:55:38.317Z,71.69
2023-03-16T19:58:10.013Z,72.45
2023-03-16T20:00:43.747Z,71.88
2023-03-16T20:03:15.906Z,72.49
2023-03-16T20:05:45.528Z,72.97
2023-03-16T20:08:26.502Z,73.00
2023-03-16T20:11:21.362Z,73.15
2023-03-16T20:13:48.607Z,73.16
2023-03-16T20:16:23.207Z,73.85
2023-03-16T20:18:55.809Z,73.95
2023-03-16T20:21:23.364Z,73.50
2023-03-16T20:23:52.609Z,73.93
2023-03-16T20:26:28.055Z,73.87
2023-03-16T20:28:58.017Z,74.69
2023-03-16T20:31:29.776Z,74.70
2023-03-16T20:33:59.586Z,74.85
2023-03-16T20:36:29.627Z,74.47
2023-03-16T20:39:03.022Z,75.02
2023-03-16T20:44:21.333Z,73.96
2023-03-16T20:46:51.895Z,74.63
2023-03-16T20:49:30.043Z,75.45
2023-03-16T20:51:58.674Z,74.39
2023-03-16T20:54:26.131Z,74.43
2023-03-16T20:56:52.646Z,75.17
2023-03-16T20:59:28.133Z,74.81
2023-03-16T21:01:57.326Z,74.40
2023-03-16T21:04:29.977Z,75.10
2023-03-16T21:06:59.356Z,74.10
2023-03-16T21:11:56.183Z,73.89
2023-03-16T21:14:24.098Z,75.11
2023-03-16T21:16:54.045Z,74.94
2023-03-16T21:19:26.055Z,75.33
2023-03-16T21:21:53.255Z,75.46
2023-03-16T21:24:29.085Z,74.77
2023-03-16T21:26:55.482Z,75.05
2023-03-16T21:29:26.082Z,75.75
2023-03-16T21:31:52.634Z,75.86
2023-03-16T21:34:32.966Z,75.72
2023-03-16T21:36:59.476Z,76.50
2023-03-16T21:39:29.491Z,76.63
2023-03-16T21:41:59.416Z,75.49
2023-03-16T21:44:26.013Z,75.06
2023-03-16T21:46:52.534Z,75.08
2023-03-16T21:49:22.054Z,74.81
2023-03-16T21:51:49.971Z,76.07
2023-03-16T21:54:19.562Z,75.83
2023-03-16T21:56:50.284Z,75.94
2023-03-16T21:59:17.110Z,75.74
2023-03-16T22:02:01.323Z,75.90
2023-03-16T22:04:33.673Z,75.49
2023-03-16T22:07:00.275Z,76.27
2023-03-16T22:09:30.210Z,75.88
2023-03-16T22:12:00.902Z,75.76
2023-03-16T22:14:30.453Z,75.50
2023-03-16T22:17:00.330Z,75.98
2023-03-16T22:19:32.118Z,75.87
2023-03-16T22:22:02.835Z,76.11
2023-03-16T22:24:30.857Z,75.87
2023-03-16T22:27:00.594Z,76.15
2023-03-16T22:29:35.653Z,76.06
2023-03-16T22:32:15.928Z,77.01
2023-03-16T22:34:48.207Z,77.35
2023-03-16T22:40:14.534Z,77.37
2023-03-16T22:43:04.302Z,77.53
2023-03-16T22:45:36.245Z,77.45
2023-03-16T22:48:16.605Z,77.42
2023-03-16T22:50:43.146Z,77.17
2023-03-16T22:53:19.925Z,77.84
2023-03-16T22:55:59.676Z,77.69
2023-03-16T22:58:38.153Z,77.38
2023-03-16T23:01:44.890Z,77.38
2023-03-16T23:04:26.576Z,77.34
2023-03-16T23:06:53.570Z,76.76
2023-03-16T23:09:24.090Z,77.90
2023-03-16T23:11:54.018Z,78.07
2023-03-16T23:14:50.246Z,77.68
2023-03-16T23:17:25.278Z,77.82
2023-03-16T23:19:54.485Z,77.80
2023-03-16T23:22:20.883Z,77.55
2023-03-16T23:24:52.263Z,76.85
2023-03-16T23:27:22.358Z,77.11
2023-03-16T23:29:51.192Z,76.86
2023-03-16T23:32:20.016Z,76.69
2023-03-16T23:35:06.425Z,76.67
2023-03-16T23:37:53.368Z,76.42
2023-03-16T23:40:21.636Z,76.73
2023-03-16T23:42:49.817Z,77.01
2023-03-16T23:45:31.730Z,76.56
2023-03-16T23:48:05.744Z,76.25
2023-03-16T23:50:35.562Z,76.10
2023-03-16T23:55:49.351Z,76.75
2023-03-16T23:58:16.274Z,77.59
